createdAt,value
2023-01-19T00:00:44.866Z,842.00
2023-01-19T00:01:44.833Z,844.00
2023-01-19T00:02:44.887Z,840.00
2023-01-19T00:03:44.746Z,842.00
2023-01-19T00:04:44.708Z,845.00
2023-01-19T00:05:44.723Z,845.00
2023-01-19T00:06:44.637Z,846.00
2023-01-19T00:07:44.593Z,847.00
2023-01-19T00:54:43.810Z,827.00
2023-01-19T00:55:44.756Z,829.00
2023-01-19T00:56:44.719Z,832.00
2023-01-19T00:57:44.686Z,829.00
2023-01-19T00:58:44.656Z,826.00
2023-01-19T00:59:44.619Z,825.00
2023-01-19T01:00:44.631Z,828.00
2023-01-19T01:01:45.626Z,825.00
2023-01-19T01:02:44.680Z,821.00
2023-01-19T01:03:44.464Z,816.00
2023-01-19T01:04:44.435Z,817.00
2023-01-19T01:05:44.391Z,817.00
2023-01-19T01:06:44.372Z,816.00
2023-01-19T01:07:44.316Z,816.00
2023-01-19T01:08:44.271Z,818.00
2023-01-19T01:09:44.228Z,817.00
2023-01-19T01:10:44.205Z,819.00
2023-01-19T01:11:44.130Z,821.00
2023-01-19T01:13:20.412Z,819.00
2023-01-19T01:13:44.037Z,819.00
2023-01-19T01:14:44.009Z,819.00
2023-01-19T01:15:43.959Z,818.00
2023-01-19T01:16:43.971Z,818.00
2023-01-19T01:17:43.886Z,815.00
2023-01-19T01:18:43.836Z,815.00
2023-01-19T01:19:43.794Z,815.00
2023-01-19T01:20:43.748Z,815.00
2023-01-19T01:21:43.699Z,814.00
2023-01-19T01:22:43.665Z,816.00
2023-01-19T01:23:43.611Z,816.00
2023-01-19T01:24:43.572Z,814.00
2023-01-19T01:25:43.549Z,813.00
2023-01-19T01:26:43.517Z,812.00
2023-01-19T01:27:43.456Z,815.00
2023-01-19T01:28:43.402Z,816.00
2023-01-19T01:29:43.369Z,817.00
2023-01-19T01:30:43.402Z,818.00
2023-01-19T01:31:43.334Z,815.00
2023-01-19T01:32:43.272Z,811.00
2023-01-19T01:33:43.212Z,811.00
2023-01-19T01:34:43.171Z,813.00
2023-01-19T01:35:43.128Z,810.00
2023-01-19T01:36:43.105Z,808.00
2023-01-19T01:37:43.056Z,808.00
2023-01-19T01:38:43.021Z,807.00
2023-01-19T01:39:42.977Z,806.00
2023-01-19T01:40:42.926Z,804.00
2023-01-19T01:41:42.876Z,805.00
2023-01-19T01:42:42.883Z,804.00
2023-01-19T01:43:42.816Z,802.00
2023-01-19T01:44:42.771Z,802.00
2023-01-19T01:45:42.752Z,799.00
2023-01-19T01:46:42.682Z,800.00
2023-01-19T01:47:42.648Z,800.00
2023-01-19T01:48:42.579Z,801.00
2023-01-19T01:49:42.530Z,796.00
2023-01-19T01:50:42.483Z,795.00
2023-01-19T01:51:42.453Z,795.00
2023-01-19T01:52:42.403Z,799.00
2023-01-19T01:53:42.370Z,796.00
2023-01-19T01:54:42.326Z,796.00
2023-01-19T01:55:42.306Z,793.00
2023-01-19T01:56:42.253Z,790.00
2023-01-19T01:57:42.220Z,789.00
2023-01-19T01:58:42.233Z,789.00
2023-01-19T01:59:42.136Z,791.00
2023-01-19T02:00:42.103Z,786.00
2023-01-19T02:01:42.261Z,785.00
2023-01-19T02:02:42.088Z,784.00
2023-01-19T02:03:42.080Z,782.00
2023-01-19T02:04:41.967Z,782.00
2023-01-19T02:05:41.922Z,782.00
2023-01-19T02:06:41.885Z,786.00
2023-01-19T02:07:41.837Z,788.00
2023-01-19T02:08:41.827Z,785.00
2023-01-19T02:09:41.767Z,783.00
2023-01-19T02:10:41.724Z,784.00
2023-01-19T02:11:41.673Z,784.00
2023-01-19T02:12:41.640Z,783.00
2023-01-19T02:13:41.623Z,783.00
2023-01-19T02:14:41.575Z,784.00
2023-01-19T02:15:41.552Z,786.00
2023-01-19T02:16:41.507Z,789.00
2023-01-19T02:17:41.432Z,788.00
2023-01-19T02:18:41.474Z,788.00
2023-01-19T02:19:41.354Z,786.00
2023-01-19T02:20:41.321Z,785.00
2023-01-19T02:21:41.281Z,784.00
2023-01-19T02:22:41.241Z,782.00
2023-01-19T02:23:41.205Z,780.00
2023-01-19T02:24:41.176Z,785.00
2023-01-19T02:25:41.107Z,785.00
2023-01-19T02:26:41.074Z,785.00
2023-01-19T02:27:41.027Z,781.00
2023-01-19T02:28:41.039Z,785.00
2023-01-19T02:29:40.956Z,782.00
2023-01-19T02:30:41.037Z,782.00
2023-01-19T02:31:40.865Z,782.00
2023-01-19T02:32:40.818Z,783.00
2023-01-19T02:33:40.767Z,785.00
2023-01-19T02:34:40.753Z,784.00
2023-01-19T02:35:40.685Z,786.00
2023-01-19T02:36:40.639Z,784.00
2023-01-19T02:37:40.590Z,781.00
2023-01-19T02:38:40.560Z,781.00
2023-01-19T02:39:40.491Z,778.00
2023-01-19T02:40:40.434Z,778.00
2023-01-19T02:41:40.397Z,775.00
2023-01-19T02:42:40.355Z,774.00
2023-01-19T02:43:40.335Z,776.00
2023-01-19T02:44:40.266Z,777.00
2023-01-19T02:45:40.230Z,777.00
2023-01-19T02:46:40.214Z,776.00
2023-01-19T02:47:40.141Z,775.00
2023-01-19T02:48:40.122Z,777.00
2023-01-19T02:49:40.057Z,776.00
2023-01-19T02:50:40.012Z,778.00
2023-01-19T02:51:39.970Z,774.00
2023-01-19T02:52:39.919Z,771.00
2023-01-19T02:53:39.959Z,769.00
2023-01-19T02:54:39.832Z,770.00
2023-01-19T02:55:39.780Z,770.00
2023-01-19T02:56:39.758Z,771.00
2023-01-19T02:57:39.732Z,771.00
2023-01-19T02:58:39.696Z,777.00
2023-01-19T02:59:39.631Z,778.00
2023-01-19T03:00:39.569Z,777.00
2023-01-19T03:01:39.638Z,774.00
2023-01-19T03:02:39.544Z,771.00
2023-01-19T03:03:39.446Z,770.00
2023-01-19T03:04:39.406Z,770.00
2023-01-19T03:05:39.358Z,767.00
2023-01-19T03:06:39.328Z,767.00
2023-01-19T03:07:39.286Z,764.00
2023-01-19T03:08:39.241Z,764.00
2023-01-19T03:09:39.205Z,762.00
2023-01-19T03:10:39.170Z,758.00
2023-01-19T03:11:39.147Z,758.00
2023-01-19T03:12:39.090Z,760.00
2023-01-19T03:13:39.051Z,762.00
2023-01-19T03:14:39.042Z,761.00
2023-01-19T03:15:39.011Z,760.00
2023-01-19T03:16:38.989Z,761.00
2023-01-19T03:17:38.907Z,758.00
2023-01-19T03:18:38.896Z,757.00
2023-01-19T03:19:38.868Z,754.00
2023-01-19T03:20:38.809Z,754.00
2023-01-19T03:21:38.780Z,753.00
2023-01-19T03:22:38.745Z,755.00
2023-01-19T03:23:38.713Z,755.00
2023-01-19T03:24:38.727Z,757.00
2023-01-19T03:25:38.622Z,757.00
2023-01-19T03:26:38.595Z,758.00
2023-01-19T03:27:38.553Z,760.00
2023-01-19T03:28:38.509Z,763.00
2023-01-19T03:29:38.464Z,763.00
2023-01-19T03:30:38.492Z,761.00
2023-01-19T03:31:38.386Z,758.00
2023-01-19T03:32:38.321Z,757.00
2023-01-19T03:33:38.271Z,755.00
2023-01-19T03:34:38.264Z,755.00
2023-01-19T03:35:38.178Z,753.00
2023-01-19T03:36:38.142Z,751.00
2023-01-19T03:37:38.108Z,748.00
2023-01-19T03:38:38.067Z,748.00
2023-01-19T03:39:38.442Z,747.00
2023-01-19T03:40:38.019Z,746.00
2023-01-19T03:41:37.946Z,752.00
2023-01-19T03:42:37.917Z,758.00
2023-01-19T03:43:37.888Z,759.00
2023-01-19T03:44:38.047Z,759.00
2023-01-19T03:45:37.819Z,760.00
2023-01-19T03:46:37.772Z,760.00
2023-01-19T03:47:37.737Z,759.00
2023-01-19T03:48:37.729Z,756.00
2023-01-19T03:49:37.695Z,756.00
2023-01-19T03:50:37.651Z,757.00
2023-01-19T03:51:37.653Z,759.00
2023-01-19T03:52:37.536Z,760.00
2023-01-19T03:53:37.500Z,756.00
2023-01-19T03:54:37.499Z,754.00
2023-01-19T03:55:37.438Z,758.00
2023-01-19T03:56:37.400Z,756.00
2023-01-19T03:57:37.449Z,757.00
2023-01-19T03:58:37.338Z,757.00
2023-01-19T03:59:37.319Z,753.00
2023-01-19T04:00:37.271Z,754.00
2023-01-19T04:01:37.416Z,752.00
2023-01-19T04:02:37.283Z,750.00
2023-01-19T04:03:37.130Z,749.00
2023-01-19T04:04:37.099Z,749.00
2023-01-19T04:05:37.072Z,752.00
2023-01-19T04:06:37.122Z,752.00
2023-01-19T04:07:37.001Z,746.00
2023-01-19T04:08:36.952Z,744.00
2023-01-19T04:09:36.902Z,743.00
2023-01-19T04:10:36.877Z,745.00
2023-01-19T04:11:36.848Z,744.00
2023-01-19T04:12:36.806Z,747.00
2023-01-19T04:13:36.803Z,748.00
2023-01-19T04:14:36.769Z,745.00
2023-01-19T04:15:36.766Z,744.00
2023-01-19T04:16:36.665Z,740.00
2023-01-19T04:17:36.624Z,739.00
2023-01-19T04:18:36.596Z,736.00
2023-01-19T04:19:36.547Z,733.00
2023-01-19T04:20:36.515Z,734.00
2023-01-19T04:21:36.475Z,731.00
2023-01-19T04:22:36.469Z,729.00
2023-01-19T04:23:36.397Z,730.00
2023-01-19T04:24:36.327Z,732.00
2023-01-19T04:25:38.002Z,732.00
2023-01-19T04:26:36.265Z,733.00
2023-01-19T04:27:36.229Z,733.00
2023-01-19T04:28:36.195Z,732.00
2023-01-19T04:29:36.176Z,732.00
2023-01-19T04:30:36.153Z,729.00
2023-01-19T04:31:36.143Z,729.00
2023-01-19T04:32:36.052Z,728.00
2023-01-19T04:33:36.020Z,728.00
2023-01-19T04:34:35.997Z,728.00
2023-01-19T04:35:35.988Z,728.00
2023-01-19T04:36:35.922Z,727.00
2023-01-19T04:37:35.881Z,728.00
2023-01-19T04:38:35.875Z,729.00
2023-01-19T04:39:35.847Z,728.00
2023-01-19T04:40:35.785Z,727.00
2023-01-19T04:41:35.756Z,728.00
2023-01-19T04:42:35.724Z,730.00
2023-01-19T04:43:35.707Z,731.00
2023-01-19T04:44:35.657Z,733.00
2023-01-19T04:45:35.617Z,732.00
2023-01-19T04:46:35.609Z,731.00
2023-01-19T04:47:35.548Z,728.00
2023-01-19T04:48:35.508Z,731.00
2023-01-19T04:49:35.479Z,726.00
2023-01-19T04:50:35.466Z,723.00
2023-01-19T04:51:35.392Z,724.00
2023-01-19T04:52:35.346Z,723.00
2023-01-19T04:53:35.304Z,722.00
2023-01-19T04:54:35.437Z,723.00
2023-01-19T04:55:35.262Z,724.00
2023-01-19T04:56:35.196Z,723.00
2023-01-19T04:57:35.217Z,723.00
2023-01-19T04:58:35.134Z,722.00
2023-01-19T04:59:35.081Z,722.00
2023-01-19T05:00:35.049Z,724.00
2023-01-19T05:01:35.128Z,725.00
2023-01-19T05:02:35.072Z,724.00
2023-01-19T05:03:34.929Z,722.00
2023-01-19T05:04:34.881Z,723.00
2023-01-19T05:05:34.912Z,718.00
2023-01-19T05:06:34.810Z,717.00
2023-01-19T05:07:34.778Z,719.00
2023-01-19T05:08:34.747Z,717.00
2023-01-19T05:09:34.717Z,718.00
2023-01-19T05:10:34.748Z,718.00
2023-01-19T05:11:34.661Z,718.00
2023-01-19T05:12:34.626Z,717.00
2023-01-19T05:13:34.587Z,716.00
2023-01-19T05:14:34.549Z,715.00
2023-01-19T05:15:34.521Z,716.00
2023-01-19T05:16:34.492Z,715.00
2023-01-19T05:17:34.503Z,715.00
2023-01-19T05:18:34.418Z,712.00
2023-01-19T05:19:34.380Z,712.00
2023-01-19T05:20:34.329Z,709.00
2023-01-19T05:21:34.290Z,711.00
2023-01-19T05:22:34.240Z,712.00
2023-01-19T05:23:34.186Z,711.00
2023-01-19T05:24:34.148Z,715.00
2023-01-19T05:25:34.119Z,712.00
2023-01-19T05:26:34.109Z,713.00
2023-01-19T05:27:34.088Z,714.00
2023-01-19T05:28:34.058Z,714.00
2023-01-19T05:29:33.972Z,716.00
2023-01-19T05:30:33.994Z,714.00
2023-01-19T05:31:34.051Z,715.00
2023-01-19T05:32:33.886Z,714.00
2023-01-19T05:33:33.830Z,711.00
2023-01-19T05:34:33.790Z,713.00
2023-01-19T05:35:36.218Z,712.00
2023-01-19T05:36:33.756Z,713.00
2023-01-19T05:37:33.653Z,709.00
2023-01-19T05:38:35.866Z,706.00
2023-01-19T05:39:33.597Z,706.00
2023-01-19T05:40:33.553Z,702.00
2023-01-19T05:41:33.532Z,702.00
2023-01-19T05:42:33.509Z,699.00
2023-01-19T05:43:33.450Z,697.00
2023-01-19T05:44:33.410Z,698.00
2023-01-19T05:45:33.385Z,696.00
2023-01-19T05:46:33.414Z,700.00
2023-01-19T05:47:33.312Z,701.00
2023-01-19T05:48:33.285Z,698.00
2023-01-19T05:49:33.269Z,698.00
2023-01-19T05:50:33.211Z,697.00
2023-01-19T05:51:33.171Z,697.00
2023-01-19T05:52:33.131Z,700.00
2023-01-19T05:53:33.147Z,698.00
2023-01-19T05:54:33.061Z,699.00
2023-01-19T05:55:33.031Z,698.00
2023-01-19T05:56:32.996Z,698.00
2023-01-19T05:57:32.969Z,695.00
2023-01-19T05:58:32.964Z,695.00
2023-01-19T05:59:32.876Z,694.00
2023-01-19T06:00:32.830Z,695.00
2023-01-19T06:01:32.835Z,693.00
2023-01-19T06:02:32.773Z,693.00
2023-01-19T06:03:32.830Z,694.00
2023-01-19T06:04:32.679Z,692.00
2023-01-19T06:05:32.641Z,690.00
2023-01-19T06:06:32.621Z,690.00
2023-01-19T06:07:32.558Z,688.00
2023-01-19T06:08:32.507Z,689.00
2023-01-19T06:09:32.468Z,689.00
2023-01-19T06:10:32.454Z,688.00
2023-01-19T06:11:32.425Z,686.00
2023-01-19T06:12:32.364Z,689.00
2023-01-19T06:13:32.506Z,686.00
2023-01-19T06:14:32.327Z,688.00
2023-01-19T06:15:32.257Z,689.00
2023-01-19T06:16:32.276Z,685.00
2023-01-19T06:17:32.204Z,687.00
2023-01-19T06:18:32.515Z,683.00
2023-01-19T06:19:32.127Z,687.00
2023-01-19T06:20:32.083Z,687.00
2023-01-19T06:21:32.047Z,689.00
2023-01-19T06:22:31.985Z,689.00
2023-01-19T06:23:32.055Z,685.00
2023-01-19T06:24:31.915Z,686.00
2023-01-19T06:25:31.880Z,685.00
2023-01-19T06:26:31.846Z,686.00
2023-01-19T06:27:31.814Z,693.00
2023-01-19T06:28:32.016Z,699.00
2023-01-19T06:29:31.731Z,701.00
2023-01-19T06:30:31.809Z,704.00
2023-01-19T06:31:31.704Z,706.00
2023-01-19T06:32:31.609Z,709.00
2023-01-19T06:33:31.599Z,711.00
2023-01-19T06:34:31.993Z,717.00
2023-01-19T06:35:31.476Z,722.00
2023-01-19T06:36:31.431Z,726.00
2023-01-19T06:37:31.431Z,731.00
2023-01-19T06:38:31.369Z,735.00
2023-01-19T06:39:31.564Z,737.00
2023-01-19T06:40:31.284Z,744.00
2023-01-19T06:41:31.235Z,746.00
2023-01-19T06:42:31.178Z,744.00
2023-01-19T06:43:31.140Z,749.00
2023-01-19T06:44:31.506Z,752.00
2023-01-19T06:45:31.121Z,756.00
2023-01-19T06:46:31.039Z,759.00
2023-01-19T06:47:31.378Z,763.00
2023-01-19T06:48:30.948Z,767.00
2023-01-19T06:49:31.029Z,770.00
2023-01-19T06:50:30.864Z,773.00
2023-01-19T06:51:30.821Z,773.00
2023-01-19T06:52:30.780Z,778.00
2023-01-19T06:53:31.193Z,802.00
2023-01-19T06:54:30.708Z,842.00
2023-01-19T06:55:31.251Z,871.00
2023-01-19T06:56:30.618Z,866.00
2023-01-19T06:57:30.576Z,883.00
2023-01-19T06:58:30.559Z,891.00
2023-01-19T06:59:30.536Z,900.00
2023-01-19T07:00:30.641Z,906.00
2023-01-19T07:01:30.553Z,911.00
2023-01-19T07:02:31.633Z,911.00
2023-01-19T07:03:30.591Z,911.00
2023-01-19T07:04:32.316Z,915.00
2023-01-19T07:05:30.250Z,919.00
2023-01-19T07:06:30.292Z,919.00
2023-01-19T07:07:31.136Z,922.00
2023-01-19T07:08:30.131Z,922.00
2023-01-19T07:09:30.084Z,922.00
2023-01-19T07:11:26.649Z,916.00
2023-01-19T07:11:33.040Z,917.00
2023-01-19T07:12:30.523Z,915.00
2023-01-19T07:13:30.256Z,909.00
2023-01-19T07:14:29.895Z,908.00
2023-01-19T07:15:29.852Z,906.00
2023-01-19T07:16:37.231Z,903.00
2023-01-19T07:17:30.029Z,904.00
2023-01-19T07:18:29.795Z,905.00
2023-01-19T07:19:29.718Z,908.00
2023-01-19T07:20:29.669Z,904.00
2023-01-19T07:21:29.644Z,900.00
2023-01-19T07:22:29.614Z,899.00
2023-01-19T07:23:30.004Z,901.00
2023-01-19T07:24:29.514Z,901.00
2023-01-19T07:25:29.521Z,898.00
2023-01-19T07:26:29.433Z,900.00
2023-01-19T07:27:29.732Z,899.00
2023-01-19T07:28:29.392Z,900.00
2023-01-19T07:29:29.410Z,896.00
2023-01-19T07:30:29.472Z,895.00
2023-01-19T07:31:29.415Z,892.00
2023-01-19T07:32:29.550Z,890.00
2023-01-19T07:33:29.224Z,890.00
2023-01-19T07:34:29.206Z,891.00
2023-01-19T07:35:29.144Z,889.00
2023-01-19T07:36:29.111Z,887.00
2023-01-19T07:37:29.539Z,885.00
2023-01-19T07:38:29.316Z,886.00
2023-01-19T07:39:28.981Z,887.00
2023-01-19T07:40:29.013Z,884.00
2023-01-19T07:41:29.234Z,885.00
2023-01-19T07:42:29.074Z,886.00
2023-01-19T07:43:28.874Z,880.00
2023-01-19T07:44:28.817Z,879.00
2023-01-19T07:45:29.612Z,875.00
2023-01-19T07:46:28.793Z,875.00
2023-01-19T07:47:28.743Z,875.00
2023-01-19T07:48:28.691Z,875.00
2023-01-19T07:49:28.661Z,872.00
2023-01-19T07:50:29.179Z,872.00
2023-01-19T07:51:29.583Z,869.00
2023-01-19T07:52:28.561Z,868.00
2023-01-19T07:53:28.612Z,868.00
2023-01-19T07:54:28.497Z,868.00
2023-01-19T07:55:28.630Z,866.00
2023-01-19T07:56:28.413Z,865.00
2023-01-19T07:57:28.325Z,866.00
2023-01-19T07:58:28.652Z,864.00
2023-01-19T07:59:28.332Z,861.00
2023-01-19T08:00:28.220Z,862.00
2023-01-19T08:01:28.324Z,863.00
2023-01-19T08:02:28.150Z,867.00
2023-01-19T08:03:29.133Z,867.00
2023-01-19T08:04:28.162Z,867.00
2023-01-19T08:05:28.056Z,866.00
2023-01-19T08:06:28.021Z,865.00
2023-01-19T08:07:27.955Z,867.00
2023-01-19T08:08:28.061Z,867.00
2023-01-19T08:09:27.840Z,867.00
2023-01-19T08:10:27.821Z,867.00
2023-01-19T08:11:27.795Z,870.00
2023-01-19T08:12:28.120Z,870.00
2023-01-19T08:13:28.258Z,867.00
2023-01-19T08:14:27.668Z,864.00
2023-01-19T08:15:27.724Z,867.00
2023-01-19T08:16:27.589Z,868.00
2023-01-19T08:17:27.680Z,871.00
2023-01-19T08:18:27.519Z,872.00
2023-01-19T08:19:27.521Z,871.00
2023-01-19T08:20:27.441Z,869.00
2023-01-19T08:21:27.447Z,868.00
2023-01-19T08:22:27.407Z,865.00
2023-01-19T08:23:27.561Z,865.00
2023-01-19T08:24:27.538Z,864.00
2023-01-19T08:25:27.248Z,861.00
2023-01-19T08:26:28.054Z,860.00
2023-01-19T08:27:27.175Z,860.00
2023-01-19T08:28:27.180Z,860.00
2023-01-19T08:29:27.645Z,858.00
2023-01-19T08:30:28.054Z,850.00
2023-01-19T08:31:27.180Z,850.00
2023-01-19T08:32:27.023Z,847.00
2023-01-19T08:33:26.926Z,850.00
2023-01-19T08:34:27.082Z,850.00
2023-01-19T08:35:34.235Z,854.00
2023-01-19T08:36:31.028Z,856.00
2023-01-19T08:37:26.782Z,851.00
2023-01-19T08:38:27.199Z,848.00
2023-01-19T08:39:26.701Z,866.00
2023-01-19T08:40:26.663Z,868.00
2023-01-19T08:41:27.633Z,882.00
2023-01-19T08:42:26.587Z,895.00
2023-01-19T08:43:26.632Z,899.00
2023-01-19T08:44:27.489Z,912.00
2023-01-19T08:45:26.462Z,973.00
2023-01-19T08:46:26.473Z,978.00
2023-01-19T08:47:27.387Z,997.00
2023-01-19T08:48:26.496Z,1008.00
2023-01-19T08:49:26.831Z,1020.00
2023-01-19T08:50:26.565Z,1032.00
2023-01-19T08:51:26.161Z,1052.00
2023-01-19T08:52:26.087Z,1079.00
2023-01-19T08:53:26.062Z,1122.00
2023-01-19T08:54:26.106Z,1136.00
2023-01-19T08:55:25.944Z,1139.00
2023-01-19T08:56:25.922Z,1235.00
2023-01-19T08:57:25.867Z,1235.00
2023-01-19T08:58:25.807Z,1283.00
2023-01-19T08:59:26.069Z,1348.00
2023-01-19T09:00:25.716Z,1348.00
2023-01-19T09:01:25.887Z,1258.00
2023-01-19T09:02:26.188Z,1251.00
2023-01-19T09:03:25.615Z,1307.00
2023-01-19T09:04:25.588Z,1309.00
2023-01-19T09:05:25.490Z,1262.00
2023-01-19T09:06:25.448Z,1264.00
2023-01-19T09:07:25.409Z,1272.00
2023-01-19T09:08:25.346Z,1288.00
2023-01-19T09:09:25.624Z,1329.00
2023-01-19T09:10:25.282Z,1357.00
2023-01-19T09:11:25.227Z,1366.00
2023-01-19T09:12:25.562Z,1375.00
2023-01-19T09:13:25.133Z,1378.00
2023-01-19T09:14:25.121Z,1404.00
2023-01-19T09:15:25.044Z,1422.00
2023-01-19T09:16:25.065Z,1434.00
2023-01-19T09:17:25.068Z,1450.00
2023-01-19T09:18:24.896Z,1458.00
2023-01-19T09:19:24.844Z,1469.00
2023-01-19T09:20:25.048Z,1489.00
2023-01-19T09:21:24.748Z,1516.00
2023-01-19T09:22:24.695Z,1539.00
2023-01-19T09:23:24.643Z,1555.00
2023-01-19T09:24:24.602Z,1573.00
2023-01-19T09:25:24.569Z,1582.00
2023-01-19T09:26:24.536Z,1599.00
2023-01-19T09:27:25.449Z,1664.00
2023-01-19T09:28:24.551Z,1658.00
2023-01-19T09:29:24.388Z,1675.00
2023-01-19T09:30:24.307Z,1714.00
2023-01-19T09:31:24.417Z,1733.00
2023-01-19T09:32:24.217Z,1741.00
2023-01-19T09:33:24.637Z,1774.00
2023-01-19T09:34:24.122Z,1799.00
2023-01-19T09:35:24.578Z,1843.00
2023-01-19T09:36:24.010Z,1812.00
2023-01-19T09:37:23.957Z,958.00
2023-01-19T09:38:23.921Z,883.00
2023-01-19T09:39:23.913Z,750.00
2023-01-19T09:40:24.098Z,666.00
2023-01-19T09:41:23.802Z,672.00
2023-01-19T09:42:23.855Z,817.00
2023-01-19T09:43:23.747Z,934.00
2023-01-19T09:44:23.721Z,986.00
2023-01-19T09:45:24.144Z,1034.00
2023-01-19T09:46:24.102Z,1162.00
2023-01-19T09:47:24.063Z,1171.00
2023-01-19T09:48:23.597Z,1131.00
2023-01-19T09:49:23.556Z,1104.00
2023-01-19T09:50:23.552Z,959.00
2023-01-19T09:51:23.512Z,904.00
2023-01-19T09:52:23.568Z,979.00
2023-01-19T09:53:23.434Z,995.00
2023-01-19T09:54:23.442Z,1105.00
2023-01-19T09:55:23.384Z,1154.00
2023-01-19T09:56:23.337Z,1190.00
2023-01-19T09:57:23.564Z,1188.00
2023-01-19T09:58:23.279Z,1194.00
2023-01-19T09:59:23.253Z,1224.00
2023-01-19T10:00:23.612Z,1257.00
2023-01-19T10:01:23.874Z,1258.00
2023-01-19T10:02:23.090Z,1259.00
2023-01-19T10:03:23.118Z,1272.00
2023-01-19T10:04:22.988Z,1297.00
2023-01-19T10:05:22.950Z,1366.00
2023-01-19T10:06:23.073Z,1365.00
2023-01-19T10:07:23.082Z,1367.00
2023-01-19T10:08:22.851Z,1373.00
2023-01-19T10:09:22.783Z,1383.00
2023-01-19T10:10:23.116Z,1399.00
2023-01-19T10:11:22.702Z,1448.00
2023-01-19T10:12:22.664Z,1491.00
2023-01-19T10:13:22.592Z,1501.00
2023-01-19T10:14:22.567Z,1511.00
2023-01-19T10:15:22.600Z,1515.00
2023-01-19T10:16:22.613Z,1528.00
2023-01-19T10:17:22.387Z,1542.00
2023-01-19T10:18:22.373Z,1550.00
2023-01-19T10:19:22.297Z,1602.00
2023-01-19T10:20:22.255Z,1619.00
2023-01-19T10:21:22.594Z,1639.00
2023-01-19T10:22:22.224Z,1647.00
2023-01-19T10:23:22.085Z,1657.00
2023-01-19T10:24:22.042Z,1671.00
2023-01-19T10:25:21.989Z,1694.00
2023-01-19T10:26:22.122Z,1699.00
2023-01-19T10:27:21.885Z,1717.00
2023-01-19T10:28:21.822Z,1731.00
2023-01-19T10:29:21.854Z,1751.00
2023-01-19T10:30:21.749Z,1760.00
2023-01-19T10:31:22.242Z,1769.00
2023-01-19T10:32:21.632Z,1772.00
2023-01-19T10:33:21.583Z,1163.00
2023-01-19T10:34:23.700Z,1020.00
2023-01-19T10:35:21.573Z,1002.00
2023-01-19T10:36:21.578Z,1202.00
2023-01-19T10:37:21.522Z,1260.00
2023-01-19T10:38:21.457Z,1271.00
2023-01-19T10:39:22.427Z,1402.00
2023-01-19T10:40:21.630Z,1423.00
2023-01-19T10:41:21.622Z,1430.00
2023-01-19T10:42:21.313Z,1487.00
2023-01-19T10:43:21.287Z,1504.00
2023-01-19T10:44:21.848Z,1531.00
2023-01-19T10:45:21.276Z,1564.00
2023-01-19T10:46:21.915Z,1674.00
2023-01-19T10:47:21.117Z,1669.00
2023-01-19T10:48:21.085Z,1677.00
2023-01-19T10:49:21.166Z,1673.00
2023-01-19T10:50:21.156Z,1697.00
2023-01-19T10:51:21.091Z,1755.00
2023-01-19T10:52:20.911Z,1765.00
2023-01-19T10:53:21.089Z,1779.00
2023-01-19T10:54:20.836Z,1809.00
2023-01-19T10:55:20.826Z,1822.00
2023-01-19T10:56:21.084Z,1834.00
2023-01-19T10:57:20.677Z,1889.00
2023-01-19T10:58:20.681Z,1885.00
2023-01-19T10:59:20.657Z,1895.00
2023-01-19T11:00:20.532Z,1904.00
2023-01-19T11:01:20.583Z,1911.00
2023-01-19T11:02:20.592Z,1923.00
2023-01-19T11:03:20.338Z,1959.00
2023-01-19T11:04:20.270Z,1979.00
2023-01-19T11:05:20.218Z,1996.00
2023-01-19T11:06:20.628Z,2006.00
2023-01-19T11:07:20.091Z,2023.00
2023-01-19T11:08:20.060Z,2066.00
2023-01-19T11:09:19.994Z,2100.00
2023-01-19T11:10:19.924Z,2102.00
2023-01-19T11:11:20.147Z,2118.00
2023-01-19T11:12:23.001Z,2127.00
2023-01-19T11:13:19.756Z,2179.00
2023-01-19T11:14:19.700Z,2183.00
2023-01-19T11:15:19.649Z,2191.00
2023-01-19T11:16:20.147Z,2192.00
2023-01-19T11:17:19.543Z,2337.00
2023-01-19T11:18:19.500Z,2337.00
2023-01-19T11:19:19.408Z,2328.00
2023-01-19T11:20:19.353Z,2330.00
2023-01-19T11:21:19.640Z,2327.00
2023-01-19T11:22:19.249Z,2334.00
2023-01-19T11:23:19.223Z,2329.00
2023-01-19T11:24:19.153Z,2314.00
2023-01-19T11:25:19.111Z,2192.00
2023-01-19T11:26:19.124Z,1925.00
2023-01-19T11:27:19.012Z,1789.00
2023-01-19T11:28:19.104Z,1780.00
2023-01-19T11:29:18.953Z,1758.00
2023-01-19T11:30:18.904Z,1662.00
2023-01-19T11:31:19.256Z,1542.00
2023-01-19T11:32:18.964Z,1646.00
2023-01-19T11:33:18.796Z,1651.00
2023-01-19T11:34:19.166Z,1401.00
2023-01-19T11:35:19.172Z,1516.00
2023-01-19T11:36:19.316Z,1464.00
2023-01-19T11:37:19.501Z,1390.00
2023-01-19T11:38:19.334Z,1281.00
2023-01-19T11:39:18.880Z,1336.00
2023-01-19T11:40:18.629Z,1440.00
2023-01-19T11:41:18.490Z,1282.00
2023-01-19T11:42:19.115Z,1297.00
2023-01-19T11:43:18.449Z,1287.00
2023-01-19T11:44:18.391Z,1260.00
2023-01-19T11:45:18.424Z,1227.00
2023-01-19T11:46:18.356Z,1157.00
2023-01-19T11:47:18.313Z,1169.00
2023-01-19T11:48:18.263Z,1103.00
2023-01-19T11:49:18.659Z,1211.00
2023-01-19T11:50:18.302Z,1049.00
2023-01-19T11:51:18.291Z,949.00
2023-01-19T11:52:18.149Z,833.00
2023-01-19T11:53:18.122Z,773.00
2023-01-19T11:54:21.311Z,726.00
2023-01-19T11:55:18.113Z,697.00
2023-01-19T11:56:18.092Z,664.00
2023-01-19T11:57:18.087Z,698.00
2023-01-19T11:58:18.158Z,777.00
2023-01-19T11:59:18.073Z,803.00
2023-01-19T12:00:18.053Z,806.00
2023-01-19T12:01:18.087Z,790.00
2023-01-19T12:02:18.231Z,830.00
2023-01-19T12:03:18.034Z,833.00
2023-01-19T12:04:18.004Z,798.00
2023-01-19T12:05:17.963Z,789.00
2023-01-19T12:06:17.957Z,805.00
2023-01-19T12:07:18.342Z,810.00
2023-01-19T12:08:17.951Z,815.00
2023-01-19T12:09:17.886Z,867.00
2023-01-19T12:10:17.864Z,873.00
2023-01-19T12:11:17.826Z,894.00
2023-01-19T12:12:18.118Z,945.00
2023-01-19T12:13:18.112Z,964.00
2023-01-19T12:14:17.750Z,989.00
2023-01-19T12:15:17.776Z,1064.00
2023-01-19T12:16:17.735Z,1057.00
2023-01-19T12:17:18.144Z,1061.00
2023-01-19T12:18:18.144Z,1075.00
2023-01-19T12:19:17.585Z,1156.00
2023-01-19T12:20:17.543Z,1155.00
2023-01-19T12:21:17.522Z,1152.00
2023-01-19T12:22:17.659Z,1150.00
2023-01-19T12:23:17.437Z,1151.00
2023-01-19T12:24:17.428Z,1153.00
2023-01-19T12:25:17.356Z,1154.00
2023-01-19T12:26:17.318Z,1146.00
2023-01-19T12:27:17.646Z,1142.00
2023-01-19T12:28:17.221Z,1141.00
2023-01-19T12:29:17.179Z,1139.00
2023-01-19T12:30:17.161Z,1137.00
2023-01-19T12:31:17.192Z,1136.00
2023-01-19T12:32:17.076Z,1135.00
2023-01-19T12:33:17.125Z,1134.00
2023-01-19T12:34:17.011Z,1131.00
2023-01-19T12:35:16.968Z,1132.00
2023-01-19T12:36:16.935Z,1129.00
2023-01-19T12:37:16.886Z,1129.00
2023-01-19T12:38:17.151Z,1127.00
2023-01-19T12:39:16.809Z,1130.00
2023-01-19T12:40:16.775Z,1133.00
2023-01-19T12:41:16.769Z,1133.00
2023-01-19T12:42:16.751Z,1127.00
2023-01-19T12:43:17.126Z,1126.00
2023-01-19T12:44:16.653Z,1121.00
2023-01-19T12:45:16.593Z,1120.00
2023-01-19T12:46:16.599Z,1115.00
2023-01-19T12:47:16.515Z,1116.00
2023-01-19T12:48:16.478Z,1113.00
2023-01-19T12:49:16.444Z,1111.00
2023-01-19T12:50:16.661Z,1110.00
2023-01-19T12:51:16.350Z,1108.00
2023-01-19T12:52:16.312Z,1107.00
2023-01-19T12:53:16.298Z,1105.00
2023-01-19T12:54:16.736Z,1103.00
2023-01-19T12:55:16.222Z,1105.00
2023-01-19T12:56:16.188Z,1104.00
2023-01-19T12:57:16.158Z,1104.00
2023-01-19T12:58:16.132Z,1103.00
2023-01-19T12:59:16.078Z,1101.00
2023-01-19T13:00:16.029Z,1102.00
2023-01-19T13:01:16.104Z,1101.00
2023-01-19T13:02:16.065Z,1100.00
2023-01-19T13:03:16.151Z,1096.00
2023-01-19T13:04:15.935Z,1094.00
2023-01-19T13:05:15.822Z,1092.00
2023-01-19T13:06:16.170Z,1089.00
2023-01-19T13:07:15.726Z,1086.00